GMMH

Details ICAO GMMH (VIL)
Name DAKHLA
Region Morocco
Timezone Africa/El_Aaiun (UTC+0.0)
Plans Departing 17
Arriving 16
Stats Elevation 36 ft / 11 m (AMSL)
Location 23.718294° -15.931993°
Runways 1
Magnetic Variation 5.358° W
Sunrise 2017-02-24 07:31:21 UTC / 2017-02-24 07:31:21 Local
Sunset 2017-02-24 19:05:28 UTC / 2017-02-24 19:05:28 Local
Advertisement - Login to hide

Runways

ID Width Length Bearing (true) Bearing (mag) Surface Threshold Offset Overrun Length
03 148 ft / 45 m 9,886 ft / 3,013 m 22.66° 28.02° Asphalt 0 ft / 0 m 323 ft / 98 m
21 148 ft / 45 m 9,886 ft / 3,013 m 202.67° 208.03° Asphalt 0 ft / 0 m 377 ft / 115 m

Map

Weather

Temperature
Clouds and Precipitation
Forecast for 2017-02-24 06:00 UTC. Updated 21 minutes ago
Winds

METAR

Not found

TAF

TAF GMMH 232300Z 2400/2506 03020KT 8000 NSC= TAF GMMI 232300Z 2400/2506 16004KT 8000 NSC PROB40 2400/2409 3000 BR BECMG 2403/2407 BKN010 PROB40 2422/2506 3000 BR

Frequencies

Tower 118.10 MHz TWR
Warning: Do not use this data for real-world aviation or navigation. No guarantee of current accuracy is given.